sensor_id;sensor_type;location;lat;lon;timestamp;P1;durP1;ratioP1;P2;durP2;ratioP2
50225;SDS011;36113;50.742;6.432;2023-02-14T15:06:41;22.58;;;15.95;;
50225;SDS011;36113;50.742;6.432;2023-02-14T15:09:10;24.65;;;16.70;;
50225;SDS011;36113;50.742;6.432;2023-02-14T15:11:55;28.83;;;18.67;;
50225;SDS011;36113;50.742;6.432;2023-02-14T15:14:43;24.30;;;17.23;;
50225;SDS011;36113;50.742;6.432;2023-02-14T15:19:47;28.15;;;17.75;;
50225;SDS011;36113;50.742;6.432;2023-02-14T15:22:27;25.27;;;17.40;;
50225;SDS011;36113;50.742;6.432;2023-02-14T15:24:58;28.98;;;17.20;;
50225;SDS011;36113;50.742;6.432;2023-02-14T15:27:24;23.65;;;17.45;;
50225;SDS011;36113;50.742;6.432;2023-02-14T15:29:52;23.55;;;16.60;;
50225;SDS011;36113;50.742;6.432;2023-02-14T15:32:18;24.65;;;17.13;;
50225;SDS011;36113;50.742;6.432;2023-02-14T15:34:44;24.23;;;15.63;;
50225;SDS011;36113;50.742;6.432;2023-02-14T15:37:10;23.38;;;15.73;;
50225;SDS011;36113;50.742;6.432;2023-02-14T15:40:14;23.02;;;15.55;;
50225;SDS011;36113;50.742;6.432;2023-02-14T15:42:32;22.60;;;15.70;;
50225;SDS011;36113;50.742;6.432;2023-02-14T15:47:43;21.83;;;15.77;;
50225;SDS011;36113;50.742;6.432;2023-02-14T15:50:17;25.10;;;15.40;;
50225;SDS011;36113;50.742;6.432;2023-02-14T15:52:44;23.20;;;14.38;;
50225;SDS011;36113;50.742;6.432;2023-02-14T15:55:14;20.83;;;14.98;;
50225;SDS011;36113;50.742;6.432;2023-02-14T15:57:43;21.73;;;14.23;;
50225;SDS011;36113;50.742;6.432;2023-02-14T16:00:15;25.73;;;15.95;;
50225;SDS011;36113;50.742;6.432;2023-02-14T16:02:45;21.60;;;14.05;;
50225;SDS011;36113;50.742;6.432;2023-02-14T16:05:20;26.13;;;15.00;;
50225;SDS011;36113;50.742;6.432;2023-02-14T16:10:57;23.92;;;15.23;;
50225;SDS011;36113;50.742;6.432;2023-02-14T16:13:28;21.77;;;15.10;;
50225;SDS011;36113;50.742;6.432;2023-02-14T16:15:59;23.33;;;15.70;;
50225;SDS011;36113;50.742;6.432;2023-02-14T16:18:33;20.25;;;14.70;;
50225;SDS011;36113;50.742;6.432;2023-02-14T16:26:35;25.65;;;16.80;;
50225;SDS011;36113;50.742;6.432;2023-02-14T16:29:05;30.80;;;16.08;;
50225;SDS011;36113;50.742;6.432;2023-02-14T16:31:32;25.48;;;15.48;;
50225;SDS011;36113;50.742;6.432;2023-02-14T16:33:58;24.63;;;17.70;;
50225;SDS011;36113;50.742;6.432;2023-02-14T16:38:49;25.73;;;17.33;;
50225;SDS011;36113;50.742;6.432;2023-02-14T16:41:16;23.00;;;15.13;;
50225;SDS011;36113;50.742;6.432;2023-02-14T16:43:44;59.65;;;31.52;;
50225;SDS011;36113;50.742;6.432;2023-02-14T16:46:10;63.80;;;34.47;;
50225;SDS011;36113;50.742;6.432;2023-02-14T16:48:38;83.88;;;43.17;;
50225;SDS011;36113;50.742;6.432;2023-02-14T16:51:03;46.08;;;30.23;;
50225;SDS011;36113;50.742;6.432;2023-02-14T16:53:29;40.88;;;26.27;;
50225;SDS011;36113;50.742;6.432;2023-02-14T16:55:55;25.80;;;18.75;;
50225;SDS011;36113;50.742;6.432;2023-02-14T16:58:22;25.03;;;16.77;;
50225;SDS011;36113;50.742;6.432;2023-02-14T17:00:53;27.42;;;18.38;;
50225;SDS011;36113;50.742;6.432;2023-02-14T17:03:19;25.03;;;20.40;;
50225;SDS011;36113;50.742;6.432;2023-02-14T17:05:45;27.25;;;22.10;;
50225;SDS011;36113;50.742;6.432;2023-02-14T17:08:11;27.73;;;21.65;;
50225;SDS011;36113;50.742;6.432;2023-02-14T17:10:39;25.83;;;18.83;;
50225;SDS011;36113;50.742;6.432;2023-02-14T17:13:07;28.38;;;17.05;;
50225;SDS011;36113;50.742;6.432;2023-02-14T17:15:34;21.55;;;16.38;;
50225;SDS011;36113;50.742;6.432;2023-02-14T17:18:04;26.33;;;16.50;;
50225;SDS011;36113;50.742;6.432;2023-02-14T17:20:33;23.73;;;15.93;;
50225;SDS011;36113;50.742;6.432;2023-02-14T17:22:59;23.85;;;15.95;;
50225;SDS011;36113;50.742;6.432;2023-02-14T17:25:25;30.05;;;19.15;;
50225;SDS011;36113;50.742;6.432;2023-02-14T17:27:50;32.63;;;20.60;;
50225;SDS011;36113;50.742;6.432;2023-02-14T17:30:16;28.92;;;20.23;;
50225;SDS011;36113;50.742;6.432;2023-02-14T17:32:42;30.67;;;20.70;;
50225;SDS011;36113;50.742;6.432;2023-02-14T17:35:07;37.92;;;21.95;;
50225;SDS011;36113;50.742;6.432;2023-02-14T17:37:33;31.50;;;21.40;;
50225;SDS011;36113;50.742;6.432;2023-02-14T17:39:59;27.40;;;17.35;;
50225;SDS011;36113;50.742;6.432;2023-02-14T17:42:25;31.90;;;18.98;;
50225;SDS011;36113;50.742;6.432;2023-02-14T17:44:50;23.42;;;17.80;;
50225;SDS011;36113;50.742;6.432;2023-02-14T17:47:16;27.90;;;19.05;;
50225;SDS011;36113;50.742;6.432;2023-02-14T17:49:43;30.13;;;19.70;;
50225;SDS011;36113;50.742;6.432;2023-02-14T17:52:11;28.08;;;19.30;;
50225;SDS011;36113;50.742;6.432;2023-02-14T17:54:36;29.75;;;20.25;;
50225;SDS011;36113;50.742;6.432;2023-02-14T17:57:02;34.35;;;21.38;;
50225;SDS011;36113;50.742;6.432;2023-02-14T17:59:28;29.13;;;20.63;;
50225;SDS011;36113;50.742;6.432;2023-02-14T18:01:55;27.30;;;18.95;;
50225;SDS011;36113;50.742;6.432;2023-02-14T18:04:20;29.20;;;18.92;;
50225;SDS011;36113;50.742;6.432;2023-02-14T18:06:46;27.60;;;18.08;;
50225;SDS011;36113;50.742;6.432;2023-02-14T18:09:11;26.48;;;19.48;;
50225;SDS011;36113;50.742;6.432;2023-02-14T18:11:38;34.63;;;20.90;;
50225;SDS011;36113;50.742;6.432;2023-02-14T18:14:04;33.25;;;21.90;;
50225;SDS011;36113;50.742;6.432;2023-02-14T18:16:29;29.08;;;19.20;;
50225;SDS011;36113;50.742;6.432;2023-02-14T18:18:55;29.13;;;21.42;;
50225;SDS011;36113;50.742;6.432;2023-02-14T18:21:20;32.47;;;21.83;;
50225;SDS011;36113;50.742;6.432;2023-02-14T18:23:48;27.40;;;21.30;;
50225;SDS011;36113;50.742;6.432;2023-02-14T18:26:14;31.90;;;22.30;;
50225;SDS011;36113;50.742;6.432;2023-02-14T18:28:40;36.58;;;23.27;;
50225;SDS011;36113;50.742;6.432;2023-02-14T18:31:06;37.78;;;25.67;;
50225;SDS011;36113;50.742;6.432;2023-02-14T18:33:39;33.28;;;23.52;;
50225;SDS011;36113;50.742;6.432;2023-02-14T18:36:06;33.33;;;21.08;;
50225;SDS011;36113;50.742;6.432;2023-02-14T18:38:35;29.40;;;20.00;;
50225;SDS011;36113;50.742;6.432;2023-02-14T18:41:01;28.80;;;20.23;;
50225;SDS011;36113;50.742;6.432;2023-02-14T18:43:28;26.75;;;17.98;;
50225;SDS011;36113;50.742;6.432;2023-02-14T18:45:53;26.45;;;18.77;;
50225;SDS011;36113;50.742;6.432;2023-02-14T18:48:18;26.08;;;18.98;;
50225;SDS011;36113;50.742;6.432;2023-02-14T18:50:43;30.02;;;18.33;;
50225;SDS011;36113;50.742;6.432;2023-02-14T18:53:09;34.40;;;19.23;;
50225;SDS011;36113;50.742;6.432;2023-02-14T18:55:35;30.70;;;19.73;;
50225;SDS011;36113;50.742;6.432;2023-02-14T18:58:01;32.00;;;22.73;;
50225;SDS011;36113;50.742;6.432;2023-02-14T19:00:27;29.08;;;21.63;;
50225;SDS011;36113;50.742;6.432;2023-02-14T19:02:56;33.63;;;22.90;;
50225;SDS011;36113;50.742;6.432;2023-02-14T19:05:21;33.03;;;20.48;;
50225;SDS011;36113;50.742;6.432;2023-02-14T19:07:47;35.47;;;21.23;;
50225;SDS011;36113;50.742;6.432;2023-02-14T19:10:18;35.72;;;20.85;;
50225;SDS011;36113;50.742;6.432;2023-02-14T19:12:43;28.77;;;21.55;;
50225;SDS011;36113;50.742;6.432;2023-02-14T19:15:09;39.60;;;25.98;;
50225;SDS011;36113;50.742;6.432;2023-02-14T19:17:36;27.80;;;19.80;;
50225;SDS011;36113;50.742;6.432;2023-02-14T19:20:01;28.52;;;18.73;;
50225;SDS011;36113;50.742;6.432;2023-02-14T19:22:35;30.75;;;21.20;;
50225;SDS011;36113;50.742;6.432;2023-02-14T19:25:01;32.83;;;20.63;;
50225;SDS011;36113;50.742;6.432;2023-02-14T19:27:26;33.03;;;19.83;;
50225;SDS011;36113;50.742;6.432;2023-02-14T19:29:52;33.05;;;21.33;;
50225;SDS011;36113;50.742;6.432;2023-02-14T19:32:17;33.50;;;19.60;;
50225;SDS011;36113;50.742;6.432;2023-02-14T19:34:42;38.45;;;20.92;;
50225;SDS011;36113;50.742;6.432;2023-02-14T19:37:08;33.92;;;19.58;;
50225;SDS011;36113;50.742;6.432;2023-02-14T19:39:33;30.98;;;19.73;;
50225;SDS011;36113;50.742;6.432;2023-02-14T19:41:58;26.83;;;18.88;;
50225;SDS011;36113;50.742;6.432;2023-02-14T19:44:24;29.23;;;18.58;;
50225;SDS011;36113;50.742;6.432;2023-02-14T19:46:50;31.48;;;18.25;;
50225;SDS011;36113;50.742;6.432;2023-02-14T19:49:16;32.40;;;18.27;;
50225;SDS011;36113;50.742;6.432;2023-02-14T19:51:43;34.60;;;17.58;;
50225;SDS011;36113;50.742;6.432;2023-02-14T19:54:09;29.63;;;17.67;;
50225;SDS011;36113;50.742;6.432;2023-02-14T19:56:37;27.17;;;17.58;;
50225;SDS011;36113;50.742;6.432;2023-02-14T19:59:04;32.22;;;17.83;;
50225;SDS011;36113;50.742;6.432;2023-02-14T20:01:35;30.67;;;17.20;;
50225;SDS011;36113;50.742;6.432;2023-02-14T20:04:02;26.27;;;16.23;;
50225;SDS011;36113;50.742;6.432;2023-02-14T20:06:29;27.52;;;18.27;;
50225;SDS011;36113;50.742;6.432;2023-02-14T20:08:54;32.13;;;18.00;;
50225;SDS011;36113;50.742;6.432;2023-02-14T20:11:36;27.98;;;16.85;;
50225;SDS011;36113;50.742;6.432;2023-02-14T20:14:13;25.02;;;17.23;;
50225;SDS011;36113;50.742;6.432;2023-02-14T20:16:41;25.52;;;16.73;;
50225;SDS011;36113;50.742;6.432;2023-02-14T20:19:08;28.58;;;17.08;;
50225;SDS011;36113;50.742;6.432;2023-02-14T20:21:38;28.73;;;17.42;;
50225;SDS011;36113;50.742;6.432;2023-02-14T20:24:06;26.65;;;16.48;;
50225;SDS011;36113;50.742;6.432;2023-02-14T20:26:33;24.73;;;16.70;;
50225;SDS011;36113;50.742;6.432;2023-02-14T20:29:00;32.25;;;17.35;;
50225;SDS011;36113;50.742;6.432;2023-02-14T20:31:33;34.47;;;17.02;;
50225;SDS011;36113;50.742;6.432;2023-02-14T20:33:58;28.17;;;16.95;;
50225;SDS011;36113;50.742;6.432;2023-02-14T20:36:24;29.33;;;18.00;;
50225;SDS011;36113;50.742;6.432;2023-02-14T20:38:56;25.17;;;18.15;;
50225;SDS011;36113;50.742;6.432;2023-02-14T20:41:23;29.05;;;17.55;;
50225;SDS011;36113;50.742;6.432;2023-02-14T20:43:49;30.75;;;18.15;;
50225;SDS011;36113;50.742;6.432;2023-02-14T20:46:14;30.45;;;18.63;;
50225;SDS011;36113;50.742;6.432;2023-02-14T20:48:39;25.85;;;17.52;;
50225;SDS011;36113;50.742;6.432;2023-02-14T20:51:12;28.98;;;18.50;;
50225;SDS011;36113;50.742;6.432;2023-02-14T20:53:42;30.30;;;18.17;;
50225;SDS011;36113;50.742;6.432;2023-02-14T20:58:35;31.60;;;19.55;;
50225;SDS011;36113;50.742;6.432;2023-02-14T21:03:31;30.05;;;18.17;;
50225;SDS011;36113;50.742;6.432;2023-02-14T21:05:59;34.03;;;20.40;;
50225;SDS011;36113;50.742;6.432;2023-02-14T21:08:25;33.83;;;19.45;;
50225;SDS011;36113;50.742;6.432;2023-02-14T21:10:50;35.15;;;19.70;;
50225;SDS011;36113;50.742;6.432;2023-02-14T21:13:15;34.28;;;19.58;;
50225;SDS011;36113;50.742;6.432;2023-02-14T21:15:41;33.20;;;20.38;;
50225;SDS011;36113;50.742;6.432;2023-02-14T21:18:06;38.40;;;21.38;;
50225;SDS011;36113;50.742;6.432;2023-02-14T21:20:32;34.53;;;20.70;;
50225;SDS011;36113;50.742;6.432;2023-02-14T21:22:57;38.22;;;22.35;;
50225;SDS011;36113;50.742;6.432;2023-02-14T21:25:22;36.63;;;22.40;;
50225;SDS011;36113;50.742;6.432;2023-02-14T21:27:48;39.10;;;22.70;;
50225;SDS011;36113;50.742;6.432;2023-02-14T21:30:13;35.53;;;21.67;;
50225;SDS011;36113;50.742;6.432;2023-02-14T21:32:38;39.92;;;22.27;;
50225;SDS011;36113;50.742;6.432;2023-02-14T21:35:04;35.03;;;21.42;;
50225;SDS011;36113;50.742;6.432;2023-02-14T21:37:30;37.17;;;21.25;;
50225;SDS011;36113;50.742;6.432;2023-02-14T21:39:55;35.53;;;20.10;;
50225;SDS011;36113;50.742;6.432;2023-02-14T21:42:21;38.88;;;20.85;;
50225;SDS011;36113;50.742;6.432;2023-02-14T21:44:46;33.97;;;20.35;;
50225;SDS011;36113;50.742;6.432;2023-02-14T21:47:50;35.13;;;20.92;;
50225;SDS011;36113;50.742;6.432;2023-02-14T21:50:35;37.28;;;20.38;;
50225;SDS011;36113;50.742;6.432;2023-02-14T21:53:01;37.00;;;20.60;;
50225;SDS011;36113;50.742;6.432;2023-02-14T21:55:27;32.00;;;18.08;;
50225;SDS011;36113;50.742;6.432;2023-02-14T21:57:52;33.35;;;19.27;;
50225;SDS011;36113;50.742;6.432;2023-02-14T22:00:18;35.97;;;20.15;;
50225;SDS011;36113;50.742;6.432;2023-02-14T22:02:43;34.97;;;20.42;;
50225;SDS011;36113;50.742;6.432;2023-02-14T22:05:08;31.98;;;19.40;;
50225;SDS011;36113;50.742;6.432;2023-02-14T22:07:34;32.42;;;20.63;;
50225;SDS011;36113;50.742;6.432;2023-02-14T22:09:59;34.97;;;20.60;;
50225;SDS011;36113;50.742;6.432;2023-02-14T22:12:25;33.03;;;19.90;;
50225;SDS011;36113;50.742;6.432;2023-02-14T22:14:52;37.08;;;20.63;;
50225;SDS011;36113;50.742;6.432;2023-02-14T22:17:17;35.78;;;20.38;;
50225;SDS011;36113;50.742;6.432;2023-02-14T22:19:42;36.50;;;21.77;;
50225;SDS011;36113;50.742;6.432;2023-02-14T22:22:08;38.08;;;20.95;;
50225;SDS011;36113;50.742;6.432;2023-02-14T22:24:33;37.65;;;21.67;;
50225;SDS011;36113;50.742;6.432;2023-02-14T22:26:58;38.15;;;22.65;;
50225;SDS011;36113;50.742;6.432;2023-02-14T22:29:24;37.05;;;21.75;;
50225;SDS011;36113;50.742;6.432;2023-02-14T22:31:49;36.88;;;21.55;;
50225;SDS011;36113;50.742;6.432;2023-02-14T22:34:14;37.80;;;21.92;;
50225;SDS011;36113;50.742;6.432;2023-02-14T22:36:43;37.63;;;21.65;;
50225;SDS011;36113;50.742;6.432;2023-02-14T22:39:09;41.40;;;22.70;;
50225;SDS011;36113;50.742;6.432;2023-02-14T22:41:38;39.00;;;22.98;;
50225;SDS011;36113;50.742;6.432;2023-02-14T22:44:03;41.40;;;22.85;;
50225;SDS011;36113;50.742;6.432;2023-02-14T22:46:30;38.67;;;23.85;;
50225;SDS011;36113;50.742;6.432;2023-02-14T22:48:55;36.00;;;22.60;;
50225;SDS011;36113;50.742;6.432;2023-02-14T22:51:22;34.40;;;21.93;;
50225;SDS011;36113;50.742;6.432;2023-02-14T22:53:50;35.42;;;21.55;;
50225;SDS011;36113;50.742;6.432;2023-02-14T22:56:18;36.38;;;21.55;;
50225;SDS011;36113;50.742;6.432;2023-02-14T22:58:46;35.03;;;22.45;;
50225;SDS011;36113;50.742;6.432;2023-02-14T23:01:15;40.38;;;22.67;;
50225;SDS011;36113;50.742;6.432;2023-02-14T23:03:43;34.03;;;20.80;;
50225;SDS011;36113;50.742;6.432;2023-02-14T23:06:09;37.67;;;22.60;;
50225;SDS011;36113;50.742;6.432;2023-02-14T23:08:38;41.97;;;23.73;;
50225;SDS011;36113;50.742;6.432;2023-02-14T23:11:06;40.97;;;23.05;;
50225;SDS011;36113;50.742;6.432;2023-02-14T23:13:36;40.30;;;22.27;;
50225;SDS011;36113;50.742;6.432;2023-02-14T23:16:20;35.65;;;22.15;;
50225;SDS011;36113;50.742;6.432;2023-02-14T23:19:05;37.58;;;22.25;;
50225;SDS011;36113;50.742;6.432;2023-02-14T23:21:53;39.90;;;22.35;;
50225;SDS011;36113;50.742;6.432;2023-02-14T23:24:18;36.55;;;21.65;;
50225;SDS011;36113;50.742;6.432;2023-02-14T23:26:44;36.30;;;21.45;;
50225;SDS011;36113;50.742;6.432;2023-02-14T23:29:09;36.63;;;22.50;;
50225;SDS011;36113;50.742;6.432;2023-02-14T23:31:34;36.50;;;20.83;;
50225;SDS011;36113;50.742;6.432;2023-02-14T23:34:00;34.33;;;21.15;;
50225;SDS011;36113;50.742;6.432;2023-02-14T23:36:25;36.55;;;21.45;;
50225;SDS011;36113;50.742;6.432;2023-02-14T23:38:50;38.05;;;22.17;;
50225;SDS011;36113;50.742;6.432;2023-02-14T23:41:15;41.38;;;22.35;;
50225;SDS011;36113;50.742;6.432;2023-02-14T23:43:59;33.58;;;21.30;;
50225;SDS011;36113;50.742;6.432;2023-02-14T23:46:24;40.67;;;22.90;;
50225;SDS011;36113;50.742;6.432;2023-02-14T23:48:50;41.47;;;22.23;;
50225;SDS011;36113;50.742;6.432;2023-02-14T23:51:15;37.47;;;23.33;;
50225;SDS011;36113;50.742;6.432;2023-02-14T23:53:40;40.60;;;22.52;;
50225;SDS011;36113;50.742;6.432;2023-02-14T23:56:06;35.92;;;22.42;;
50225;SDS011;36113;50.742;6.432;2023-02-14T23:58:31;41.47;;;22.42;;
